Time;durP1;ratioP1;P1;durP2;ratioP2;P2;SDS_P1;SDS_P2;PMS_P1;PMS_P2;Temp;Humidity;BMP_temperature;BMP_pressure;BME280_temperature;BME280_humidity;BME280_pressure;Samples;Min_cycle;Max_cycle;Signal;HPM_P1;HPM_P2
2021/08/20 00:02:22;;;;;;;13.90;8.20;;;17.50;99.90;;;;;;4440762;32;20154;-87
2021/08/20 00:04:49;;;;;;;11.57;8.80;;;17.50;99.90;;;;;;4441103;32;20188;-85
2021/08/20 00:07:20;;;;;;;11.70;8.27;;;17.40;99.90;;;;;;4447638;32;20210;-85
2021/08/20 00:09:47;;;;;;;11.23;8.67;;;17.40;99.90;;;;;;4440715;32;20169;-85
2021/08/20 00:12:14;;;;;;;10.60;8.50;;;17.40;99.90;;;;;;4439045;32;20199;-85
2021/08/20 00:14:41;;;;;;;12.27;8.77;;;17.30;99.90;;;;;;4439797;32;20174;-85
2021/08/20 00:17:08;;;;;;;11.33;8.67;;;17.40;99.90;;;;;;4438129;32;20199;-85
2021/08/20 00:19:36;;;;;;;11.40;8.33;;;17.40;99.90;;;;;;4439058;32;20393;-85
2021/08/20 00:22:08;;;;;;;10.87;8.43;;;17.40;99.90;;;;;;4439097;32;20134;-86
2021/08/20 00:24:36;;;;;;;11.93;8.43;;;17.30;99.90;;;;;;4438810;32;20134;-85
2021/08/20 00:27:04;;;;;;;12.13;9.23;;;17.40;99.90;;;;;;4440080;32;20130;-86
2021/08/20 00:29:30;;;;;;;13.07;8.90;;;17.30;99.90;;;;;;4440472;32;20164;-85
2021/08/20 00:31:57;;;;;;;13.70;8.50;;;17.40;99.90;;;;;;4439153;32;20201;-85
2021/08/20 00:34:24;;;;;;;14.73;8.53;;;17.30;99.90;;;;;;4439506;32;20461;-85
2021/08/20 00:36:51;;;;;;;11.57;8.33;;;17.20;99.90;;;;;;4439052;32;20439;-85
2021/08/20 00:39:19;;;;;;;11.60;8.57;;;17.30;99.90;;;;;;4445440;32;20507;-85
2021/08/20 00:41:47;;;;;;;10.37;8.43;;;17.20;99.90;;;;;;4440107;32;20146;-85
2021/08/20 00:44:14;;;;;;;11.07;7.93;;;17.20;99.90;;;;;;4438507;32;20516;-85
2021/08/20 00:46:42;;;;;;;12.60;8.60;;;17.10;99.90;;;;;;4439445;32;20196;-85
2021/08/20 00:49:10;;;;;;;11.37;8.57;;;17.10;99.90;;;;;;4446075;32;20196;-85
2021/08/20 00:51:38;;;;;;;12.40;8.70;;;17.10;99.90;;;;;;4438589;32;20168;-85
2021/08/20 00:54:10;;;;;;;12.20;8.50;;;17.00;99.90;;;;;;4438889;32;20135;-85
2021/08/20 00:56:42;;;;;;;10.97;8.63;;;16.90;99.90;;;;;;4440075;32;20223;-85
2021/08/20 00:59:11;;;;;;;12.67;8.47;;;16.90;99.90;;;;;;4444347;32;20234;-85
2021/08/20 01:01:38;;;;;;;11.67;8.60;;;16.80;99.90;;;;;;4441852;32;20145;-86
2021/08/20 01:04:06;;;;;;;13.73;8.33;;;16.80;99.90;;;;;;4441539;32;20231;-87
2021/08/20 01:06:37;;;;;;;11.43;8.20;;;16.70;99.90;;;;;;4441666;32;20173;-85
2021/08/20 01:09:05;;;;;;;11.97;8.40;;;16.70;99.90;;;;;;4437809;32;20130;-85
2021/08/20 01:11:32;;;;;;;11.80;8.47;;;16.60;99.90;;;;;;4437715;32;20166;-86
2021/08/20 01:13:59;;;;;;;11.87;8.23;;;16.60;99.90;;;;;;4437805;32;20418;-86
2021/08/20 01:16:26;;;;;;;12.97;9.07;;;16.60;99.90;;;;;;4438670;32;20241;-86
2021/08/20 01:18:53;;;;;;;13.53;9.30;;;16.60;99.90;;;;;;4439241;32;20131;-86
2021/08/20 01:21:23;;;;;;;12.20;8.80;;;16.40;99.90;;;;;;4439009;32;20152;-86
2021/08/20 01:23:52;;;;;;;12.70;8.03;;;16.40;99.90;;;;;;4439164;32;20157;-86
2021/08/20 01:26:20;;;;;;;12.03;8.03;;;16.40;99.90;;;;;;4441013;32;20548;-85
2021/08/20 01:28:47;;;;;;;14.17;9.90;;;16.40;99.90;;;;;;4441441;32;20127;-86
2021/08/20 01:31:15;;;;;;;12.60;8.97;;;16.40;99.90;;;;;;4452761;32;20173;-86
2021/08/20 01:33:43;;;;;;;14.97;9.10;;;16.40;99.90;;;;;;4441574;32;20171;-86
2021/08/20 01:36:10;;;;;;;13.63;9.10;;;16.30;99.90;;;;;;4440838;32;20206;-83
2021/08/20 01:38:44;;;;;;;13.50;9.10;;;16.20;99.90;;;;;;4440566;32;20150;-83
2021/08/20 01:41:12;;;;;;;12.77;9.23;;;16.20;99.90;;;;;;4442341;32;20448;-84
2021/08/20 01:43:39;;;;;;;14.07;9.30;;;16.20;99.90;;;;;;4440728;32;20139;-85
2021/08/20 01:46:05;;;;;;;11.90;9.07;;;16.20;99.90;;;;;;4442266;32;20186;-84
2021/08/20 01:48:32;;;;;;;15.17;9.40;;;16.20;99.90;;;;;;4441471;32;20177;-85
2021/08/20 01:50:59;;;;;;;11.73;9.00;;;16.10;99.90;;;;;;4442791;32;20280;-84
2021/08/20 01:53:27;;;;;;;12.97;9.13;;;16.10;99.90;;;;;;4442398;32;20139;-84
2021/08/20 01:55:53;;;;;;;13.63;9.43;;;16.00;99.90;;;;;;4441209;32;20182;-85
2021/08/20 01:58:20;;;;;;;12.63;9.00;;;16.00;99.90;;;;;;4443138;32;20206;-84
2021/08/20 02:00:47;;;;;;;11.60;9.13;;;16.00;99.90;;;;;;4444866;32;20154;-84
2021/08/20 02:03:14;;;;;;;14.20;9.67;;;16.00;99.90;;;;;;4445911;32;20147;-84
2021/08/20 02:05:41;;;;;;;15.20;10.07;;;15.90;99.90;;;;;;4440595;32;20136;-83
2021/08/20 02:08:08;;;;;;;14.90;10.20;;;15.90;99.90;;;;;;4441814;32;20180;-83
2021/08/20 02:10:35;;;;;;;12.83;9.53;;;15.90;99.90;;;;;;4441830;32;20152;-84
2021/08/20 02:13:02;;;;;;;12.30;9.17;;;15.80;99.90;;;;;;4442435;32;20139;-83
2021/08/20 02:15:29;;;;;;;14.33;9.90;;;15.80;99.90;;;;;;4442707;32;20457;-84
2021/08/20 02:17:56;;;;;;;12.87;9.20;;;15.70;99.90;;;;;;4442611;32;20458;-84
2021/08/20 02:20:23;;;;;;;12.83;9.33;;;15.70;99.90;;;;;;4442882;32;20138;-84
2021/08/20 02:22:49;;;;;;;13.97;9.83;;;15.70;99.90;;;;;;4441006;32;20195;-83
2021/08/20 02:25:17;;;;;;;14.13;9.70;;;15.70;99.90;;;;;;4449446;32;20147;-83
2021/08/20 02:27:43;;;;;;;13.77;10.00;;;15.60;99.90;;;;;;4441305;32;20212;-83
2021/08/20 02:30:11;;;;;;;15.40;10.10;;;15.50;99.90;;;;;;4442250;32;20428;-83
2021/08/20 02:32:37;;;;;;;14.30;9.87;;;15.50;99.90;;;;;;4441066;32;20139;-82
2021/08/20 02:35:19;;;;;;;17.27;9.93;;;15.50;99.90;;;;;;4441190;32;20131;-82
2021/08/20 02:37:46;;;;;;;13.67;9.90;;;15.50;99.90;;;;;;4441153;32;20173;-82
2021/08/20 02:40:13;;;;;;;20.40;10.80;;;15.50;99.90;;;;;;4441272;32;20160;-82
2021/08/20 02:42:40;;;;;;;13.40;9.63;;;15.40;99.90;;;;;;4441941;32;20130;-82
2021/08/20 02:45:07;;;;;;;14.77;10.03;;;15.50;99.90;;;;;;4442271;32;20123;-81
2021/08/20 02:47:34;;;;;;;13.43;9.87;;;15.40;99.90;;;;;;4441426;32;20122;-81
2021/08/20 02:50:01;;;;;;;15.20;10.63;;;15.40;99.90;;;;;;4440529;32;20179;-82
2021/08/20 02:52:28;;;;;;;14.87;10.77;;;15.40;99.90;;;;;;4440496;32;20505;-82
2021/08/20 02:54:55;;;;;;;14.03;10.33;;;15.30;99.90;;;;;;4441912;32;20414;-82
2021/08/20 02:57:27;;;;;;;15.63;10.77;;;15.30;99.90;;;;;;4441816;32;20494;-82
2021/08/20 02:59:55;;;;;;;15.97;10.10;;;15.20;99.90;;;;;;4440152;32;20227;-82
2021/08/20 03:02:23;;;;;;;14.90;10.30;;;15.20;99.90;;;;;;4440116;32;20194;-82
2021/08/20 03:04:50;;;;;;;16.63;11.07;;;15.20;99.90;;;;;;4441881;32;20344;-81
2021/08/20 03:07:17;;;;;;;15.13;10.90;;;15.20;99.90;;;;;;4439797;32;20173;-81
2021/08/20 03:09:44;;;;;;;15.73;11.27;;;15.20;99.90;;;;;;4440477;32;20472;-81
2021/08/20 03:12:11;;;;;;;15.73;10.83;;;15.20;99.90;;;;;;4441429;32;20390;-82
2021/08/20 03:14:38;;;;;;;14.87;11.30;;;15.10;99.90;;;;;;4441233;32;20127;-81
2021/08/20 03:17:05;;;;;;;16.70;11.20;;;15.10;99.90;;;;;;4440108;32;20126;-81
2021/08/20 03:19:32;;;;;;;17.53;11.40;;;15.00;99.90;;;;;;4441300;32;20409;-81
2021/08/20 03:21:58;;;;;;;17.40;11.77;;;15.00;99.90;;;;;;4439714;32;20135;-82
2021/08/20 03:24:25;;;;;;;16.17;11.97;;;15.00;99.90;;;;;;4439944;32;20525;-82
2021/08/20 03:26:52;;;;;;;19.83;12.23;;;14.90;99.90;;;;;;4440871;32;20131;-82
2021/08/20 03:29:19;;;;;;;17.40;12.33;;;15.00;99.90;;;;;;4441245;32;20127;-83
2021/08/20 03:31:45;;;;;;;17.93;12.33;;;15.00;99.90;;;;;;4439819;32;20123;-81
2021/08/20 03:34:12;;;;;;;16.43;11.20;;;14.90;99.90;;;;;;4440264;32;20135;-82
2021/08/20 03:36:39;;;;;;;15.50;11.27;;;14.90;99.90;;;;;;4442279;32;20164;-82
2021/08/20 03:39:06;;;;;;;17.57;11.90;;;14.90;99.90;;;;;;4441094;32;20164;-82
2021/08/20 03:41:33;;;;;;;18.10;11.97;;;14.90;99.90;;;;;;4440729;32;20135;-82
2021/08/20 03:43:59;;;;;;;21.07;12.47;;;14.90;99.90;;;;;;4441272;32;20187;-82
2021/08/20 03:46:26;;;;;;;16.30;12.47;;;14.90;99.90;;;;;;4439148;32;20135;-81
2021/08/20 03:48:53;;;;;;;18.40;12.23;;;14.90;99.90;;;;;;4439351;32;20147;-82
2021/08/20 03:51:19;;;;;;;17.47;12.47;;;14.90;99.90;;;;;;4440655;32;20135;-81
2021/08/20 03:53:46;;;;;;;18.00;12.53;;;14.80;99.90;;;;;;4439785;32;20162;-82
2021/08/20 03:56:13;;;;;;;19.47;12.37;;;14.90;99.90;;;;;;4439447;32;20397;-82
2021/08/20 03:58:40;;;;;;;19.10;13.00;;;14.80;99.90;;;;;;4438980;32;20172;-81
2021/08/20 04:01:09;;;;;;;18.77;13.07;;;14.90;99.90;;;;;;4439717;32;20143;-76
2021/08/20 04:03:36;;;;;;;17.67;12.53;;;14.90;99.90;;;;;;4438790;32;20135;-78
2021/08/20 04:06:07;;;;;;;18.47;12.77;;;14.90;99.90;;;;;;4438853;32;20169;-80
2021/08/20 04:08:34;;;;;;;17.93;12.57;;;14.90;99.90;;;;;;4438648;32;20158;-81
2021/08/20 04:11:00;;;;;;;19.70;13.13;;;14.90;99.90;;;;;;4438596;32;20176;-81
2021/08/20 04:13:27;;;;;;;20.43;13.07;;;14.90;99.90;;;;;;4440747;32;20180;-81
2021/08/20 04:15:54;;;;;;;19.47;12.10;;;14.90;99.90;;;;;;4438851;32;20123;-80
2021/08/20 04:18:21;;;;;;;19.60;13.27;;;14.90;99.90;;;;;;4438644;32;20214;-79
2021/08/20 04:20:47;;;;;;;17.03;12.40;;;15.00;99.90;;;;;;4438530;32;20387;-80
2021/08/20 04:23:17;;;;;;;16.30;11.60;;;15.00;99.90;;;;;;4445145;32;20138;-81
2021/08/20 04:25:44;;;;;;;18.87;12.80;;;15.00;99.90;;;;;;4442014;32;20138;-80
2021/08/20 04:28:10;;;;;;;20.60;13.40;;;15.00;99.90;;;;;;4447202;32;20495;-80
2021/08/20 04:30:37;;;;;;;20.40;13.07;;;15.00;99.90;;;;;;4440401;32;20142;-81
2021/08/20 04:33:04;;;;;;;20.17;12.93;;;15.00;99.90;;;;;;4438979;32;20165;-81
2021/08/20 04:35:31;;;;;;;17.80;12.83;;;15.00;99.90;;;;;;4439961;32;20183;-80
2021/08/20 04:37:58;;;;;;;21.67;13.30;;;15.10;99.90;;;;;;4440007;32;20146;-80
2021/08/20 04:40:25;;;;;;;20.47;13.37;;;15.10;99.90;;;;;;4438832;32;20207;-81
2021/08/20 04:42:51;;;;;;;19.73;12.90;;;15.10;99.90;;;;;;4440379;32;20416;-83
2021/08/20 04:45:19;;;;;;;21.27;13.43;;;15.20;99.90;;;;;;4439268;32;20171;-84
2021/08/20 04:47:46;;;;;;;22.13;12.57;;;15.20;99.90;;;;;;4438345;32;20172;-84
2021/08/20 04:50:13;;;;;;;20.60;13.03;;;15.30;99.90;;;;;;4438858;32;20149;-84
2021/08/20 04:52:41;;;;;;;19.27;12.70;;;15.30;99.90;;;;;;4440197;32;20131;-83
2021/08/20 04:55:08;;;;;;;17.73;12.50;;;15.30;99.90;;;;;;4439080;32;20334;-82
2021/08/20 04:57:35;;;;;;;20.77;12.90;;;15.40;99.90;;;;;;4440194;32;20226;-78
2021/08/20 05:00:05;;;;;;;21.27;12.83;;;15.40;99.90;;;;;;4438213;32;20147;-80
2021/08/20 05:02:35;;;;;;;19.23;12.87;;;15.50;99.90;;;;;;4444554;32;20389;-81
2021/08/20 05:05:07;;;;;;;18.70;12.63;;;15.60;99.90;;;;;;4442192;32;20401;-82
2021/08/20 05:07:35;;;;;;;20.57;13.03;;;15.70;99.90;;;;;;4439201;32;20158;-82
2021/08/20 05:10:11;;;;;;;20.27;12.67;;;15.70;99.90;;;;;;4437889;32;20190;-82
2021/08/20 05:12:39;;;;;;;18.03;12.50;;;15.80;99.90;;;;;;4439821;32;20135;-81
2021/08/20 05:15:07;;;;;;;17.77;12.03;;;15.90;99.90;;;;;;4438693;32;20186;-83
2021/08/20 05:17:34;;;;;;;17.27;12.03;;;15.90;99.90;;;;;;4438863;32;20125;-80
2021/08/20 05:20:01;;;;;;;20.50;12.13;;;16.00;99.90;;;;;;4438320;32;20124;-79
2021/08/20 05:22:45;;;;;;;17.20;12.17;;;16.10;99.90;;;;;;4438467;32;20417;-80
2021/08/20 05:25:12;;;;;;;15.43;11.37;;;16.20;99.90;;;;;;4440314;32;20363;-79
2021/08/20 05:27:39;;;;;;;18.13;12.40;;;16.30;99.90;;;;;;4438487;32;20133;-80
2021/08/20 05:30:07;;;;;;;15.90;11.93;;;16.40;99.90;;;;;;4437881;32;20449;-79
2021/08/20 05:32:33;;;;;;;17.43;12.10;;;16.50;99.90;;;;;;4437921;32;20127;-80
2021/08/20 05:35:02;;;;;;;18.07;11.40;;;16.70;99.90;;;;;;4439354;32;20179;-81
2021/08/20 05:37:28;;;;;;;16.60;11.53;;;16.80;99.90;;;;;;4440755;32;20178;-83
2021/08/20 05:39:55;;;;;;;16.70;11.30;;;16.80;99.90;;;;;;4446343;32;20170;-82
2021/08/20 05:42:22;;;;;;;15.83;10.87;;;16.90;99.90;;;;;;4438575;32;20180;-81
2021/08/20 05:44:49;;;;;;;14.33;10.50;;;16.90;99.90;;;;;;4438519;32;20195;-81
2021/08/20 05:47:16;;;;;;;17.13;10.70;;;17.00;99.90;;;;;;4439651;32;20182;-81
2021/08/20 05:49:43;;;;;;;16.30;11.57;;;17.00;99.90;;;;;;4438334;32;20182;-80
2021/08/20 05:52:10;;;;;;;14.33;10.87;;;17.10;99.90;;;;;;4438606;32;20135;-81
2021/08/20 05:54:37;;;;;;;16.37;10.90;;;17.20;99.90;;;;;;4438359;32;20227;-81
2021/08/20 05:57:04;;;;;;;15.80;10.87;;;17.30;99.90;;;;;;4439331;32;20127;-81
2021/08/20 05:59:31;;;;;;;15.80;11.07;;;17.30;99.90;;;;;;4438967;32;20157;-81
2021/08/20 06:01:57;;;;;;;13.50;10.03;;;17.40;99.90;;;;;;4438696;32;20184;-81
2021/08/20 06:04:24;;;;;;;15.30;10.17;;;17.50;99.90;;;;;;4439430;32;20194;-81
2021/08/20 06:06:51;;;;;;;16.37;10.40;;;17.60;99.90;;;;;;4438930;32;20245;-81
2021/08/20 06:09:18;;;;;;;12.77;9.90;;;17.90;99.90;;;;;;4438871;32;20127;-82
2021/08/20 06:11:45;;;;;;;14.10;9.67;;;18.10;99.90;;;;;;4439724;32;20131;-82
2021/08/20 06:14:11;;;;;;;14.80;9.80;;;18.40;99.90;;;;;;4441591;32;20131;-82
2021/08/20 06:16:38;;;;;;;13.17;9.13;;;18.60;99.90;;;;;;4441650;32;20479;-82
2021/08/20 06:19:05;;;;;;;17.07;9.60;;;18.70;99.90;;;;;;4442489;32;20388;-82
2021/08/20 06:21:32;;;;;;;15.70;9.03;;;18.90;99.90;;;;;;4442215;32;20135;-81
2021/08/20 06:23:58;;;;;;;13.47;8.57;;;19.00;99.90;;;;;;4441662;32;20130;-80
2021/08/20 06:26:25;;;;;;;13.80;8.47;;;19.10;99.90;;;;;;4443189;32;20205;-81
2021/08/20 06:28:52;;;;;;;12.40;7.90;;;19.10;99.90;;;;;;4448945;32;20211;-82
2021/08/20 06:31:19;;;;;;;12.53;8.13;;;19.20;99.90;;;;;;4442288;32;20130;-82
2021/08/20 06:33:46;;;;;;;9.90;7.40;;;19.40;99.90;;;;;;4442432;32;20157;-81
2021/08/20 06:36:12;;;;;;;9.20;7.57;;;19.50;99.90;;;;;;4442220;32;20452;-82
2021/08/20 06:38:39;;;;;;;12.77;7.90;;;19.60;99.90;;;;;;4440734;32;20406;-81
2021/08/20 06:41:06;;;;;;;13.33;7.97;;;19.70;99.90;;;;;;4450707;32;20194;-82
2021/08/20 06:43:33;;;;;;;12.53;6.97;;;19.70;99.90;;;;;;4442488;32;20134;-82
2021/08/20 06:45:59;;;;;;;11.47;6.67;;;19.90;99.90;;;;;;4441116;32;20138;-82
2021/08/20 06:48:26;;;;;;;10.23;6.77;;;20.10;99.90;;;;;;4440317;32;20127;-83
2021/08/20 06:50:53;;;;;;;11.63;7.13;;;20.30;99.90;;;;;;4440493;32;20139;-81
2021/08/20 06:53:20;;;;;;;12.43;7.33;;;20.40;99.90;;;;;;4440487;32;20155;-82
2021/08/20 06:55:47;;;;;;;10.40;6.77;;;20.50;99.90;;;;;;4440205;32;20122;-82
2021/08/20 06:58:14;;;;;;;13.63;6.97;;;20.40;99.90;;;;;;4439902;32;20130;-82
2021/08/20 07:00:40;;;;;;;11.60;6.93;;;20.30;99.90;;;;;;4442104;32;20226;-85
2021/08/20 07:03:07;;;;;;;9.47;6.63;;;20.30;99.90;;;;;;4440262;32;20155;-84
2021/08/20 07:05:36;;;;;;;10.03;6.77;;;20.30;99.90;;;;;;4441085;32;20399;-87
2021/08/20 07:08:06;;;;;;;10.63;6.60;;;20.30;99.90;;;;;;4440063;32;20212;-87
2021/08/20 07:10:33;;;;;;;10.93;6.50;;;20.20;99.90;;;;;;4442828;32;20385;-86
2021/08/20 07:13:00;;;;;;;8.80;6.47;;;20.40;99.90;;;;;;4441297;32;20123;-86
2021/08/20 07:15:27;;;;;;;9.07;6.93;;;20.30;99.90;;;;;;4448510;32;20251;-83
2021/08/20 07:17:55;;;;;;;11.37;6.47;;;20.40;99.90;;;;;;4445227;32;20453;-88
2021/08/20 07:20:24;;;;;;;10.37;6.60;;;20.40;99.90;;;;;;4448427;32;20168;-91
2021/08/20 07:22:51;;;;;;;12.23;6.93;;;20.30;99.90;;;;;;4452865;32;20146;-88
2021/08/20 07:25:18;;;;;;;11.53;6.80;;;20.30;99.90;;;;;;4456103;32;20200;-87
2021/08/20 07:27:45;;;;;;;12.33;7.00;;;20.30;99.90;;;;;;4456516;32;20161;-91
2021/08/20 07:30:13;;;;;;;9.20;6.80;;;20.30;99.90;;;;;;4453684;32;20253;-92
2021/08/20 07:32:40;;;;;;;14.20;6.67;;;20.30;99.90;;;;;;4461288;32;20169;-92
2021/08/20 07:35:07;;;;;;;12.47;6.60;;;20.30;99.90;;;;;;4459801;32;20130;-94
2021/08/20 07:37:34;;;;;;;10.17;6.60;;;20.30;99.90;;;;;;4453601;32;20154;-92
2021/08/20 07:40:04;;;;;;;10.83;6.40;;;20.50;99.90;;;;;;4454618;32;20162;-89
2021/08/20 07:42:31;;;;;;;7.70;6.00;;;20.50;99.90;;;;;;4455469;32;20206;-90
2021/08/20 07:44:58;;;;;;;7.80;5.90;;;20.50;99.90;;;;;;4454114;32;20209;-90
2021/08/20 07:47:25;;;;;;;8.60;5.90;;;20.40;99.90;;;;;;4456141;32;20276;-94
2021/08/20 07:49:53;;;;;;;8.93;6.20;;;20.50;99.90;;;;;;4455219;32;20138;-91
2021/08/20 07:52:20;;;;;;;12.43;8.13;;;20.60;99.90;;;;;;4454227;32;20172;-93
2021/08/20 07:54:49;;;;;;;10.93;6.50;;;20.70;99.90;;;;;;4454014;32;20161;-92
2021/08/20 07:57:16;;;;;;;10.53;6.00;;;20.60;99.90;;;;;;4455012;32;20138;-90
2021/08/20 07:59:43;;;;;;;10.30;6.23;;;20.80;99.90;;;;;;4453670;32;20157;-91
2021/08/20 08:02:11;;;;;;;7.27;5.37;;;20.80;99.90;;;;;;4453087;32;20146;-91
2021/08/20 08:04:38;;;;;;;8.60;6.00;;;20.80;99.90;;;;;;4455348;32;20135;-91
2021/08/20 08:07:05;;;;;;;8.43;5.80;;;20.70;99.90;;;;;;4455201;32;20429;-89
2021/08/20 08:09:32;;;;;;;11.00;6.47;;;20.70;99.90;;;;;;4455367;32;20170;-90
2021/08/20 08:11:59;;;;;;;8.20;5.47;;;20.70;99.90;;;;;;4455903;32;20209;-89
2021/08/20 08:14:26;;;;;;;7.97;6.03;;;20.90;99.90;;;;;;4456468;32;20484;-89
2021/08/20 08:16:53;;;;;;;9.33;6.03;;;21.00;99.90;;;;;;4454541;32;20119;-88
2021/08/20 08:19:19;;;;;;;7.43;5.87;;;20.90;99.90;;;;;;4455655;32;20238;-88
2021/08/20 08:21:46;;;;;;;10.77;6.40;;;20.90;99.90;;;;;;4458003;32;20147;-88
2021/08/20 08:24:13;;;;;;;6.97;5.73;;;20.70;99.90;;;;;;4457384;32;20451;-87
2021/08/20 08:26:40;;;;;;;10.43;6.10;;;20.60;99.90;;;;;;4456045;32;20436;-88
2021/08/20 08:29:07;;;;;;;11.43;6.27;;;20.60;99.90;;;;;;4455246;32;20198;-93
2021/08/20 08:31:34;;;;;;;8.90;6.10;;;20.60;99.90;;;;;;4452870;32;20170;-88
2021/08/20 08:34:01;;;;;;;8.60;6.03;;;20.70;99.90;;;;;;4454969;32;20182;-88
2021/08/20 08:36:30;;;;;;;10.23;6.43;;;20.70;99.90;;;;;;4454958;32;20175;-89
2021/08/20 08:38:57;;;;;;;8.10;5.80;;;20.80;99.90;;;;;;4455137;32;20393;-89
2021/08/20 08:41:25;;;;;;;8.80;5.93;;;20.80;99.90;;;;;;4455790;32;20123;-89
2021/08/20 08:43:51;;;;;;;9.00;5.90;;;20.60;99.90;;;;;;4454802;32;20180;-88
2021/08/20 08:46:22;;;;;;;8.10;5.67;;;20.70;99.90;;;;;;4455408;32;20152;-89
2021/08/20 08:48:49;;;;;;;8.07;5.77;;;20.70;99.90;;;;;;4455848;32;20130;-89
2021/08/20 08:51:20;;;;;;;7.30;5.40;;;20.90;99.90;;;;;;4456046;32;20453;-93
2021/08/20 08:53:48;;;;;;;7.30;5.07;;;21.10;99.90;;;;;;4454336;32;20150;-89
2021/08/20 08:56:19;;;;;;;8.57;5.10;;;21.30;99.90;;;;;;4454584;32;20217;-88
2021/08/20 08:58:47;;;;;;;9.50;5.47;;;21.50;99.90;;;;;;4454037;32;20142;-89
2021/08/20 09:01:32;;;;;;;8.17;5.57;;;21.50;99.90;;;;;;4454427;32;20202;-89
2021/08/20 09:04:13;;;;;;;9.03;5.10;;;21.40;99.90;;;;;;4454134;32;20145;-89
2021/08/20 09:06:46;;;;;;;13.93;5.73;;;21.60;99.90;;;;;;4453090;32;20158;-89
2021/08/20 09:09:15;;;;;;;9.23;5.40;;;21.90;99.90;;;;;;4454774;32;20169;-88
2021/08/20 09:11:43;;;;;;;8.53;5.63;;;22.20;99.90;;;;;;4454860;32;20222;-88
2021/08/20 09:14:16;;;;;;;7.90;5.67;;;22.30;99.90;;;;;;4453528;32;20203;-89
2021/08/20 09:16:45;;;;;;;9.50;5.37;;;22.10;99.90;;;;;;4454590;32;20150;-89
2021/08/20 09:35:40;;;;;;;7.20;4.70;;;22.00;99.90;;;;;;4489552;27;20216;-93
2021/08/20 09:38:17;;;;;;;7.60;5.07;;;22.10;99.90;;;;;;4304562;33;20184;-93
2021/08/20 09:40:53;;;;;;;7.73;5.20;;;22.20;99.90;;;;;;4298626;33;20197;-92
2021/08/20 09:43:33;;;;;;;9.53;5.13;;;22.20;99.90;;;;;;4304452;33;20408;-93
2021/08/20 09:46:14;;;;;;;11.17;5.80;;;22.50;99.90;;;;;;4306531;33;20267;-93
2021/08/20 09:48:55;;;;;;;7.83;5.37;;;22.80;99.90;;;;;;4295700;33;20154;-94
2021/08/20 09:51:42;;;;;;;7.07;5.07;;;23.20;99.90;;;;;;4295239;33;20496;-94
2021/08/20 09:54:26;;;;;;;9.40;5.33;;;23.80;99.90;;;;;;4307411;33;20162;-93
2021/08/20 09:56:59;;;;;;;6.97;4.93;;;24.30;99.90;;;;;;4294903;33;20518;-93
2021/08/20 09:59:49;;;;;;;8.30;5.30;;;25.00;99.90;;;;;;4306822;33;20348;-94
2021/08/20 10:02:32;;;;;;;8.38;5.43;;;25.00;99.90;;;;;;4294732;33;20168;-93
2021/08/20 10:04:59;;;;;;;7.72;5.43;;;24.90;99.90;;;;;;4293806;33;20249;-93
2021/08/20 10:07:27;;;;;;;7.25;5.40;;;25.10;99.90;;;;;;4293520;33;20432;-91
2021/08/20 10:09:55;;;;;;;9.30;5.78;;;25.60;99.90;;;;;;4293466;33;20376;-92
2021/08/20 10:12:24;;;;;;;9.52;6.07;;;26.00;99.90;;;;;;4306271;33;20153;-91
2021/08/20 10:14:53;;;;;;;7.15;5.40;;;26.10;99.90;;;;;;4294237;33;20160;-91
2021/08/20 10:17:20;;;;;;;8.30;5.47;;;26.40;99.90;;;;;;4306751;33;20208;-91
2021/08/20 10:19:51;;;;;;;8.05;5.65;;;26.60;99.90;;;;;;4293285;33;20460;-91
2021/08/20 10:22:18;;;;;;;7.37;5.68;;;27.00;99.90;;;;;;4306715;33;20172;-90
2021/08/20 10:24:45;;;;;;;10.25;6.55;;;27.50;99.90;;;;;;4307097;33;20134;-91
2021/08/20 10:27:16;;;;;;;12.10;6.93;;;27.00;99.90;;;;;;4306498;33;20212;-92
2021/08/20 10:29:49;;;;;;;8.05;6.60;;;26.30;99.90;;;;;;4307006;33;20126;-92
2021/08/20 10:32:17;;;;;;;9.05;6.15;;;25.90;99.90;;;;;;4306654;33;20131;-90
2021/08/20 10:34:44;;;;;;;9.80;6.45;;;25.40;99.90;;;;;;4306981;33;20507;-91
2021/08/20 10:37:16;;;;;;;9.95;6.43;;;25.70;99.90;;;;;;4307168;33;20464;-91
2021/08/20 10:39:46;;;;;;;9.18;5.82;;;26.90;99.90;;;;;;4306630;33;20130;-91
2021/08/20 10:42:17;;;;;;;10.50;6.40;;;27.30;99.90;;;;;;4305847;33;20438;-92
2021/08/20 10:44:45;;;;;;;11.12;6.47;;;28.00;99.90;;;;;;4306998;33;20126;-90
2021/08/20 10:47:22;;;;;;;8.98;5.80;;;28.00;99.90;;;;;;4293532;33;20203;-89
2021/08/20 10:49:51;;;;;;;7.87;5.35;;;27.60;99.90;;;;;;4306097;33;20208;-90
2021/08/20 10:52:29;;;;;;;7.65;5.65;;;27.30;99.90;;;;;;4305847;33;20192;-90
2021/08/20 10:54:56;;;;;;;10.77;5.22;;;27.00;99.90;;;;;;4305653;33;20215;-89
2021/08/20 10:57:35;;;;;;;8.18;5.47;;;27.70;99.90;;;;;;4306211;33;20415;-91
2021/08/20 11:00:08;;;;;;;6.80;5.30;;;28.40;99.90;;;;;;4293096;33;20145;-90
2021/08/20 11:02:46;;;;;;;6.97;4.93;;;29.10;99.90;;;;;;4293592;33;20130;-89
2021/08/20 11:05:16;;;;;;;5.57;4.90;;;29.30;99.40;;;;;;4306142;33;20153;-90
2021/08/20 11:07:44;;;;;;;6.85;4.80;;;28.20;99.30;;;;;;4306977;33;20576;-90
2021/08/20 11:10:11;;;;;;;5.40;4.70;;;27.70;99.90;;;;;;4305351;33;20209;-90
2021/08/20 11:12:39;;;;;;;6.62;5.22;;;27.60;99.90;;;;;;4307206;33;20156;-89
2021/08/20 11:15:20;;;;;;;6.70;5.00;;;27.10;99.90;;;;;;4305854;33;20168;-90
2021/08/20 11:17:54;;;;;;;8.15;4.75;;;26.60;99.90;;;;;;4292775;33;20384;-91
2021/08/20 11:20:24;;;;;;;12.95;5.50;;;26.90;99.90;;;;;;4292916;33;20241;-91
2021/08/20 11:23:10;;;;;;;5.72;4.78;;;27.70;99.90;;;;;;4293156;33;20134;-91
2021/08/20 11:25:49;;;;;;;7.43;4.93;;;28.70;99.00;;;;;;4293110;33;20138;-90
2021/08/20 11:28:20;;;;;;;7.82;4.87;;;28.00;99.70;;;;;;4306834;33;20146;-91
2021/08/20 11:31:08;;;;;;;6.32;5.07;;;28.30;99.00;;;;;;4292698;33;20172;-90
2021/08/20 11:33:46;;;;;;;6.28;4.87;;;27.50;99.50;;;;;;4306042;33;20134;-92
2021/08/20 11:36:19;;;;;;;7.93;5.10;;;26.80;99.90;;;;;;4305626;33;20392;-92
2021/08/20 11:38:50;;;;;;;7.30;5.07;;;26.60;99.90;;;;;;4292864;33;20161;-91
2021/08/20 11:41:44;;;;;;;8.50;4.93;;;26.90;99.90;;;;;;4292643;33;20192;-92
2021/08/20 11:44:13;;;;;;;6.47;4.82;;;27.00;99.90;;;;;;4304420;33;20185;-91
2021/08/20 11:46:45;;;;;;;6.22;5.35;;;26.90;99.90;;;;;;4305383;33;20205;-92
2021/08/20 11:49:23;;;;;;;7.87;5.30;;;26.90;99.90;;;;;;4292729;33;20236;-89
2021/08/20 11:51:51;;;;;;;7.50;4.80;;;27.70;99.90;;;;;;4304684;33;20138;-91
2021/08/20 11:54:18;;;;;;;6.53;4.53;;;28.60;99.20;;;;;;4305258;33;20158;-90
2021/08/20 11:56:53;;;;;;;8.88;4.60;;;29.60;98.60;;;;;;4304968;33;20130;-91
2021/08/20 11:59:22;;;;;;;5.87;4.43;;;30.30;96.10;;;;;;4293065;33;20461;-90
2021/08/20 12:01:55;;;;;;;6.95;5.15;;;30.80;94.30;;;;;;4292442;33;20165;-90
2021/08/20 12:04:32;;;;;;;5.93;5.07;;;29.80;94.40;;;;;;4305049;33;20137;-88
2021/08/20 12:06:59;;;;;;;7.28;4.70;;;29.20;94.60;;;;;;4292141;33;20217;-89
2021/08/20 12:09:26;;;;;;;6.93;5.12;;;30.60;93.20;;;;;;4291277;33;20130;-91
2021/08/20 12:11:55;;;;;;;7.15;4.70;;;30.40;91.60;;;;;;4292608;33;20176;-90
2021/08/20 12:14:27;;;;;;;11.45;4.90;;;30.30;92.70;;;;;;4305474;33;20180;-89
2021/08/20 12:16:56;;;;;;;6.07;4.75;;;30.40;91.50;;;;;;4305607;33;20130;-90
2021/08/20 12:19:24;;;;;;;6.97;5.18;;;29.60;92.10;;;;;;4305179;33;20193;-90
2021/08/20 12:22:09;;;;;;;8.15;5.10;;;29.00;92.40;;;;;;4292535;33;20204;-91
2021/08/20 12:24:48;;;;;;;4.97;4.43;;;28.20;94.50;;;;;;4305425;33;20463;-90
2021/08/20 12:27:26;;;;;;;6.60;4.80;;;29.30;94.50;;;;;;4306359;33;20204;-90
2021/08/20 12:29:59;;;;;;;5.43;4.55;;;30.00;92.00;;;;;;4292811;33;20163;-90
2021/08/20 12:32:26;;;;;;;7.03;4.47;;;30.60;91.60;;;;;;4304427;33;20172;-90
2021/08/20 12:35:06;;;;;;;7.18;4.78;;;30.80;90.70;;;;;;4290610;33;20542;-90
2021/08/20 12:38:21;;;;;;;6.70;5.28;;;30.30;90.80;;;;;;4304655;33;20180;-90
2021/08/20 12:40:56;;;;;;;8.52;4.75;;;29.20;91.90;;;;;;4290439;33;20509;-91
2021/08/20 12:43:36;;;;;;;7.47;5.25;;;28.70;92.80;;;;;;4291876;33;20436;-91
2021/08/20 12:46:12;;;;;;;7.93;5.53;;;27.80;94.10;;;;;;4291850;33;20196;-91
2021/08/20 12:49:02;;;;;;;8.20;5.43;;;26.90;95.60;;;;;;4304878;33;20165;-90
2021/08/20 12:51:29;;;;;;;7.22;5.47;;;27.30;96.60;;;;;;4304309;33;20264;-90
2021/08/20 12:54:07;;;;;;;6.22;5.10;;;27.40;96.40;;;;;;4304325;33;20162;-91
2021/08/20 12:56:43;;;;;;;5.70;4.90;;;28.70;96.00;;;;;;4305137;33;20363;-91
2021/08/20 12:59:11;;;;;;;8.15;5.55;;;29.60;93.60;;;;;;4291606;33;20490;-91
2021/08/20 13:01:39;;;;;;;6.82;4.97;;;30.10;91.40;;;;;;4291477;33;20130;-91
2021/08/20 13:04:07;;;;;;;5.75;4.70;;;30.00;91.90;;;;;;4291853;33;20145;-92
2021/08/20 13:06:34;;;;;;;5.55;4.40;;;29.30;92.00;;;;;;4304532;33;20511;-93